createdAt,value
2023-01-19T00:00:56.431Z,-4.30
2023-01-19T00:03:23.077Z,-4.30
2023-01-19T00:05:49.834Z,-4.30
2023-01-19T00:08:17.428Z,-4.20
2023-01-19T00:10:50.924Z,-4.10
2023-01-19T00:13:17.723Z,-4.10
2023-01-19T00:15:46.880Z,-4.10
2023-01-19T00:18:13.602Z,-4.20
2023-01-19T00:20:40.911Z,-4.40
2023-01-19T00:23:08.422Z,-4.40
2023-01-19T00:25:35.719Z,-4.30
2023-01-19T00:28:02.443Z,-4.30
2023-01-19T00:30:30.016Z,-4.40
2023-01-19T00:32:57.039Z,-4.50
2023-01-19T00:35:23.820Z,-4.50
2023-01-19T00:37:50.530Z,-4.50
2023-01-19T00:40:20.092Z,-4.50
2023-01-19T00:42:48.394Z,-4.50
2023-01-19T00:45:21.130Z,-4.60
2023-01-19T00:47:50.157Z,-4.50
2023-01-19T00:50:17.241Z,-4.50
2023-01-19T00:52:45.320Z,-4.60
2023-01-19T00:55:14.399Z,-4.60
2023-01-19T00:57:41.768Z,-4.60
2023-01-19T01:00:11.711Z,-4.70
2023-01-19T01:02:40.014Z,-4.70
2023-01-19T01:05:07.829Z,-4.60
2023-01-19T01:07:40.528Z,-4.60
2023-01-19T01:10:15.946Z,-4.60
2023-01-19T01:12:54.925Z,-4.60
2023-01-19T01:15:28.296Z,-4.60
2023-01-19T01:17:56.027Z,-4.70
2023-01-19T01:20:28.605Z,-4.80
2023-01-19T01:22:56.578Z,-4.80
2023-01-19T01:25:24.881Z,-4.80
2023-01-19T01:27:52.569Z,-4.90
2023-01-19T01:30:20.331Z,-5.00
2023-01-19T01:32:47.082Z,-4.90
2023-01-19T01:35:14.655Z,-4.70
2023-01-19T01:37:42.795Z,-4.70
2023-01-19T01:40:14.768Z,-4.70
2023-01-19T01:42:42.605Z,-4.70
2023-01-19T01:45:34.172Z,-4.70
2023-01-19T01:48:23.806Z,-4.50
2023-01-19T01:51:16.104Z,-4.40
2023-01-19T01:53:45.495Z,-4.20
2023-01-19T01:56:16.559Z,-4.10
2023-01-19T01:58:44.196Z,-4.00
2023-01-19T02:01:29.852Z,-4.00
2023-01-19T02:03:57.377Z,-3.90
2023-01-19T02:06:24.643Z,-3.90
2023-01-19T02:09:17.831Z,-3.90
2023-01-19T02:12:03.230Z,-3.80
2023-01-19T02:14:30.000Z,-3.80
2023-01-19T02:16:56.828Z,-3.90
2023-01-19T02:19:36.050Z,-4.00
2023-01-19T02:22:12.924Z,-4.10
2023-01-19T02:24:39.827Z,-4.30
2023-01-19T02:27:11.146Z,-4.40
2023-01-19T02:29:38.253Z,-4.40
2023-01-19T02:32:05.776Z,-4.40
2023-01-19T02:34:32.988Z,-4.30
2023-01-19T02:37:11.144Z,-4.30
2023-01-19T02:39:50.773Z,-4.30
2023-01-19T02:42:28.928Z,-4.30
2023-01-19T02:44:56.952Z,-4.20
2023-01-19T02:47:24.185Z,-4.30
2023-01-19T02:49:58.356Z,-4.20
2023-01-19T02:52:26.612Z,-4.20
2023-01-19T02:55:04.497Z,-4.00
2023-01-19T02:57:49.690Z,-4.00
2023-01-19T03:00:32.825Z,-4.10
2023-01-19T03:03:21.420Z,-4.10
2023-01-19T03:06:08.476Z,-4.20
2023-01-19T03:08:48.579Z,-4.30
2023-01-19T03:11:16.121Z,-4.30
2023-01-19T03:13:45.526Z,-4.40
2023-01-19T03:16:32.624Z,-4.40
2023-01-19T03:19:09.137Z,-4.40
2023-01-19T03:21:37.656Z,-4.30
2023-01-19T03:24:08.284Z,-4.30
2023-01-19T03:26:42.962Z,-4.20
2023-01-19T03:29:12.216Z,-4.20
2023-01-19T03:31:41.942Z,-4.20
2023-01-19T03:34:11.585Z,-4.30
2023-01-19T03:36:46.343Z,-4.20
2023-01-19T03:39:17.946Z,-4.20
2023-01-19T06:47:34.434Z,-1.40
2023-01-19T06:50:02.241Z,-1.40
2023-01-19T06:52:28.895Z,-1.40
2023-01-19T06:54:55.570Z,-1.30
2023-01-19T06:57:23.620Z,-1.30
2023-01-19T06:59:50.405Z,-1.30
2023-01-19T07:02:26.141Z,-1.30
2023-01-19T07:04:55.443Z,-1.30
2023-01-19T07:07:22.100Z,-1.30
2023-01-19T07:09:48.745Z,-1.30
2023-01-19T07:12:15.469Z,-1.40
2023-01-19T07:14:42.413Z,-1.50
2023-01-19T07:17:16.497Z,-1.50
2023-01-19T07:19:44.477Z,-1.60
2023-01-19T07:22:11.143Z,-1.60
2023-01-19T07:24:38.195Z,-1.60
2023-01-19T07:27:05.639Z,-1.50
2023-01-19T07:29:35.514Z,-1.50
2023-01-19T07:32:05.981Z,-1.50
2023-01-19T07:34:32.669Z,-1.50
2023-01-19T07:37:01.630Z,-1.50
2023-01-19T07:39:28.263Z,-1.40
2023-01-19T07:41:55.271Z,-1.40
2023-01-19T07:44:22.401Z,-1.40
2023-01-19T07:46:51.082Z,-1.40
2023-01-19T07:49:17.869Z,-1.40
2023-01-19T07:51:44.539Z,-1.30
2023-01-19T07:54:11.267Z,-1.30
2023-01-19T07:56:37.962Z,-1.30
2023-01-19T07:59:04.650Z,-1.30
2023-01-19T08:01:31.660Z,-1.30
2023-01-19T08:03:58.470Z,-1.20
2023-01-19T08:06:32.438Z,-1.20
2023-01-19T08:08:59.186Z,-1.20
2023-01-19T08:11:25.870Z,-1.10
2023-01-19T08:14:02.476Z,-1.10
2023-01-19T08:16:29.170Z,-1.10
2023-01-19T08:18:56.058Z,-1.00
2023-01-19T08:21:23.171Z,-1.00
2023-01-19T08:23:57.052Z,-1.00
2023-01-19T08:26:40.790Z,-1.10
2023-01-19T08:29:07.454Z,-1.10
2023-01-19T08:31:35.171Z,-1.10
2023-01-19T08:34:01.935Z,-1.10
2023-01-19T08:36:28.674Z,-1.20
2023-01-19T08:38:55.293Z,-1.20
2023-01-19T08:41:22.365Z,-1.20
2023-01-19T08:43:49.448Z,-1.20
2023-01-19T08:46:17.453Z,-1.20
2023-01-19T08:48:45.211Z,-1.00
2023-01-19T08:51:12.692Z,-0.70
2023-01-19T08:53:39.850Z,-0.50
2023-01-19T08:56:12.597Z,-0.30
2023-01-19T08:58:40.675Z,-0.10
2023-01-19T09:01:08.728Z,0.00
2023-01-19T09:03:37.834Z,0.10
2023-01-19T09:06:08.547Z,0.30
2023-01-19T09:08:35.667Z,0.40
2023-01-19T09:11:02.705Z,0.60
2023-01-19T09:13:31.430Z,0.60
2023-01-19T09:15:58.188Z,0.80
2023-01-19T09:18:24.934Z,1.10
2023-01-19T09:20:51.632Z,1.30
2023-01-19T09:23:20.260Z,1.60
2023-01-19T09:25:47.949Z,2.00
2023-01-19T09:28:17.467Z,2.40
2023-01-19T09:30:44.824Z,2.60
2023-01-19T09:33:14.654Z,2.60
2023-01-19T09:35:42.301Z,2.90
2023-01-19T09:38:10.674Z,3.10
2023-01-19T09:40:49.136Z,3.20
2023-01-19T09:43:37.201Z,3.30
2023-01-19T09:46:12.342Z,3.30
2023-01-19T09:48:46.798Z,3.10
2023-01-19T09:51:23.094Z,2.90
2023-01-19T09:54:04.167Z,3.10
2023-01-19T09:56:34.092Z,3.20
2023-01-19T09:59:02.987Z,3.20
2023-01-19T10:01:35.605Z,3.20
2023-01-19T10:04:35.502Z,3.10
2023-01-19T10:07:08.101Z,3.30
2023-01-19T10:10:05.810Z,3.30
2023-01-19T10:12:45.652Z,3.40
2023-01-19T10:15:47.465Z,3.50
2023-01-19T10:18:31.395Z,3.50
2023-01-19T10:21:16.963Z,3.40
2023-01-19T10:23:52.179Z,3.40
2023-01-19T10:26:24.704Z,3.50
2023-01-19T10:29:36.305Z,3.70
2023-01-19T10:32:25.798Z,3.70
2023-01-19T10:34:55.852Z,3.80
2023-01-19T10:37:31.326Z,3.90
2023-01-19T10:40:13.551Z,3.80
2023-01-19T10:42:42.063Z,3.90
2023-01-19T10:45:30.118Z,3.70
2023-01-19T10:48:05.594Z,3.70
2023-01-19T10:50:39.751Z,3.80
2023-01-19T10:53:20.460Z,4.10
2023-01-19T10:55:47.345Z,4.30
2023-01-19T10:58:31.053Z,4.40
2023-01-19T11:01:14.201Z,4.40
2023-01-19T11:03:41.280Z,4.20
2023-01-19T11:06:15.314Z,4.30
2023-01-19T11:08:43.504Z,4.30
2023-01-19T11:11:12.595Z,4.30
2023-01-19T11:13:40.614Z,4.30
2023-01-19T11:16:28.975Z,4.20
2023-01-19T11:19:03.246Z,4.10
2023-01-19T11:21:34.278Z,3.90
2023-01-19T11:24:05.386Z,3.70
2023-01-19T11:26:44.940Z,3.60
2023-01-19T11:29:22.768Z,3.50
2023-01-19T11:31:50.092Z,3.50
2023-01-19T11:34:38.620Z,3.50
2023-01-19T11:37:27.272Z,3.40
2023-01-19T11:39:57.629Z,3.40
2023-01-19T11:42:25.867Z,3.40
2023-01-19T11:44:59.181Z,3.40
2023-01-19T11:47:45.494Z,3.40
2023-01-19T11:50:33.696Z,3.30
2023-01-19T11:53:24.203Z,3.30
2023-01-19T11:56:09.653Z,3.30
2023-01-19T11:58:47.898Z,3.40
2023-01-19T12:01:32.633Z,3.30
2023-01-19T12:04:11.111Z,3.30
2023-01-19T12:06:42.825Z,3.20
2023-01-19T12:09:32.093Z,3.30
2023-01-19T12:12:04.499Z,3.00
2023-01-19T12:14:47.491Z,3.00
2023-01-19T12:17:24.177Z,3.00
2023-01-19T12:19:56.198Z,3.00
2023-01-19T12:22:23.935Z,3.10
2023-01-19T12:24:54.965Z,3.20
2023-01-19T12:27:40.056Z,3.20
2023-01-19T12:30:21.025Z,3.20
2023-01-19T12:32:48.208Z,3.30
2023-01-19T12:35:52.551Z,3.30
2023-01-19T12:38:41.142Z,3.40
2023-01-19T12:41:18.789Z,3.40
2023-01-19T12:43:46.135Z,3.40
2023-01-19T12:46:50.008Z,3.50
2023-01-19T12:49:30.701Z,3.50
2023-01-19T12:52:38.838Z,3.50
2023-01-19T12:55:08.811Z,3.70
2023-01-19T12:57:55.727Z,3.50
2023-01-19T13:00:22.633Z,3.60
2023-01-19T13:02:59.416Z,3.60
2023-01-19T13:05:33.390Z,3.50
2023-01-19T13:08:03.062Z,3.40
2023-01-19T13:11:09.939Z,3.40
2023-01-19T13:13:48.630Z,3.40
2023-01-19T13:16:27.585Z,3.50
2023-01-19T13:18:58.792Z,3.60
2023-01-19T13:21:48.501Z,3.60
2023-01-19T13:24:23.676Z,3.50
2023-01-19T13:26:50.330Z,3.30
2023-01-19T13:29:38.997Z,3.10
2023-01-19T13:32:15.775Z,3.00
2023-01-19T13:34:58.537Z,3.00
2023-01-19T13:37:39.281Z,2.90
2023-01-19T13:40:07.296Z,2.80
2023-01-19T13:42:37.899Z,2.70
2023-01-19T13:45:22.782Z,2.60
2023-01-19T13:47:53.004Z,2.50
2023-01-19T13:50:20.772Z,2.40
2023-01-19T13:52:48.882Z,2.40
2023-01-19T13:55:16.653Z,2.30
2023-01-19T13:57:45.678Z,2.30
2023-01-19T14:00:27.458Z,2.20
2023-01-19T14:03:18.575Z,2.20
2023-01-19T14:05:45.863Z,2.10
2023-01-19T14:08:15.040Z,2.10
2023-01-19T14:10:50.342Z,2.00
2023-01-19T14:13:18.881Z,2.00
2023-01-19T14:15:47.790Z,1.90
2023-01-19T14:18:14.440Z,1.90
2023-01-19T14:21:02.756Z,1.90
2023-01-19T14:23:48.333Z,1.90
2023-01-19T14:26:51.366Z,1.90
2023-01-19T14:29:39.841Z,1.90
2023-01-19T14:32:17.660Z,2.00
2023-01-19T14:34:46.346Z,2.00
2023-01-19T14:37:27.041Z,2.00
2023-01-19T14:40:09.082Z,2.00
2023-01-19T14:42:43.346Z,1.90
2023-01-19T14:45:33.827Z,1.80
2023-01-19T14:48:18.307Z,1.60
2023-01-19T14:51:05.400Z,1.60
2023-01-19T14:53:36.929Z,1.40
2023-01-19T14:56:05.890Z,1.40
2023-01-19T14:58:34.417Z,1.20
2023-01-19T15:01:01.711Z,1.20
2023-01-19T15:03:44.845Z,1.10
2023-01-19T15:06:20.144Z,1.10
2023-01-19T15:08:49.918Z,1.10
2023-01-19T15:11:33.771Z,1.10
2023-01-19T15:14:01.698Z,1.00
2023-01-19T15:16:31.739Z,1.00
2023-01-19T15:18:58.488Z,0.90
2023-01-19T15:21:26.630Z,0.90
2023-01-19T15:23:54.505Z,0.90
2023-01-19T15:26:26.270Z,0.90
2023-01-19T15:28:53.670Z,0.90
2023-01-19T15:31:22.387Z,0.90
2023-01-19T15:33:49.431Z,0.90
2023-01-19T15:36:21.811Z,0.90
2023-01-19T15:38:50.977Z,0.90
2023-01-19T15:41:29.827Z,0.90
2023-01-19T15:43:56.764Z,0.90
2023-01-19T15:46:27.721Z,0.90
2023-01-19T15:48:54.692Z,0.90
2023-01-19T15:51:27.764Z,0.90
2023-01-19T15:53:55.783Z,0.80
2023-01-19T15:56:25.227Z,0.80
2023-01-19T15:58:53.542Z,0.70
2023-01-19T16:01:22.502Z,0.70
2023-01-19T16:03:50.196Z,0.70
2023-01-19T16:06:18.176Z,0.60
2023-01-19T16:08:45.215Z,0.50
2023-01-19T16:11:14.526Z,0.50
2023-01-19T16:13:45.543Z,0.50
2023-01-19T16:16:18.356Z,0.40
2023-01-19T16:18:47.697Z,0.40
2023-01-19T16:21:14.396Z,0.50
2023-01-19T16:23:41.115Z,0.50
2023-01-19T16:26:27.176Z,0.50
2023-01-19T16:28:57.512Z,0.50
2023-01-19T16:31:24.410Z,0.40
2023-01-19T16:33:51.151Z,0.40
2023-01-19T16:36:29.832Z,0.40
2023-01-19T16:39:10.600Z,0.40
2023-01-19T16:41:37.365Z,0.40
2023-01-19T16:44:08.189Z,0.30
2023-01-19T16:46:37.135Z,0.30
2023-01-19T16:49:27.484Z,0.20
2023-01-19T16:51:55.059Z,0.10
2023-01-19T16:54:25.672Z,0.10
2023-01-19T16:56:53.949Z,0.00
2023-01-19T16:59:21.979Z,-0.10
2023-01-19T17:01:52.803Z,-0.20
2023-01-19T17:04:21.168Z,-0.20
2023-01-19T17:06:48.371Z,-0.30
2023-01-19T17:09:15.086Z,-0.30
2023-01-19T17:11:42.375Z,-0.30
2023-01-19T17:14:17.780Z,-0.40
2023-01-19T17:16:44.616Z,-0.40
2023-01-19T17:19:17.527Z,-0.40
2023-01-19T17:21:46.144Z,-0.40
2023-01-19T17:24:13.305Z,-0.40
2023-01-19T17:26:40.183Z,-0.30
2023-01-19T17:29:09.080Z,-0.30
2023-01-19T17:31:36.487Z,-0.20
2023-01-19T17:34:03.987Z,-0.20
2023-01-19T17:36:32.617Z,-0.20
2023-01-19T17:39:03.994Z,-0.20
2023-01-19T17:41:32.727Z,-0.10
2023-01-19T17:44:00.492Z,-0.20
2023-01-19T17:46:28.595Z,-0.20
2023-01-19T17:49:06.204Z,-0.10
2023-01-19T17:51:40.755Z,-0.20
2023-01-19T17:54:07.591Z,-0.20
2023-01-19T17:56:41.292Z,-0.20
2023-01-19T17:59:10.927Z,-0.30
2023-01-19T18:01:40.085Z,-0.40
2023-01-19T18:04:08.631Z,-0.40
2023-01-19T18:06:36.152Z,-0.40
2023-01-19T18:09:04.856Z,-0.40
2023-01-19T18:11:31.642Z,-0.40
2023-01-19T18:14:00.180Z,-0.40
2023-01-19T18:16:30.953Z,-0.40
2023-01-19T18:18:58.021Z,-0.40
2023-01-19T18:21:27.363Z,-0.40
2023-01-19T18:24:02.533Z,-0.40
2023-01-19T18:26:30.917Z,-0.50
2023-01-19T18:28:58.360Z,-0.60
2023-01-19T18:31:26.501Z,-0.60
2023-01-19T18:33:53.468Z,-0.60
2023-01-19T18:36:20.386Z,-0.60
2023-01-19T18:38:47.631Z,-0.60
2023-01-19T18:41:19.634Z,-0.60
2023-01-19T18:43:46.918Z,-0.60
2023-01-19T18:46:14.692Z,-0.60
2023-01-19T18:48:43.657Z,-0.60
2023-01-19T18:51:13.396Z,-0.60
2023-01-19T18:53:40.802Z,-0.60
2023-01-19T18:56:08.453Z,-0.50
2023-01-19T18:58:38.112Z,-0.50
2023-01-19T19:01:16.405Z,-0.50
2023-01-19T19:03:43.233Z,-0.50
2023-01-19T19:06:09.934Z,-0.50
2023-01-19T19:08:36.849Z,-0.50
2023-01-19T19:11:11.159Z,-0.50
2023-01-19T19:13:39.556Z,-0.50
2023-01-19T19:16:11.161Z,-0.50
2023-01-19T19:18:38.811Z,-0.60
2023-01-19T19:21:08.104Z,-0.70
2023-01-19T19:23:35.243Z,-0.80
2023-01-19T19:26:06.981Z,-0.80
2023-01-19T19:28:36.155Z,-0.90
2023-01-19T19:31:08.806Z,-0.90
2023-01-19T19:33:40.839Z,-0.90
2023-01-19T19:36:09.120Z,-0.90
2023-01-19T19:38:36.884Z,-0.90
2023-01-19T19:41:11.548Z,-0.90
2023-01-19T19:43:38.702Z,-0.80
2023-01-19T19:46:08.155Z,-0.80
2023-01-19T19:48:37.120Z,-0.70
2023-01-19T19:51:18.358Z,-0.70
2023-01-19T19:53:45.942Z,-0.70
2023-01-19T19:56:13.893Z,-0.70
2023-01-19T19:58:42.137Z,-0.70
2023-01-19T20:01:19.326Z,-0.70
2023-01-19T20:03:46.682Z,-0.80
2023-01-19T20:06:24.613Z,-0.80
2023-01-19T20:08:53.292Z,-0.80
2023-01-19T20:11:22.316Z,-0.70
2023-01-19T20:13:50.738Z,-0.80
2023-01-19T20:16:19.407Z,-0.70
2023-01-19T20:18:54.130Z,-0.80
2023-01-19T20:21:30.319Z,-0.80
2023-01-19T20:24:00.780Z,-0.80
2023-01-19T20:26:30.802Z,-0.80
2023-01-19T20:29:00.007Z,-0.90
2023-01-19T20:31:33.111Z,-0.90
2023-01-19T20:34:02.481Z,-0.90
2023-01-19T20:36:29.274Z,-0.90
2023-01-19T20:38:59.631Z,-0.90
2023-01-19T20:41:27.540Z,-0.90
2023-01-19T20:43:54.642Z,-0.90
2023-01-19T20:46:24.448Z,-0.90
2023-01-19T20:48:53.590Z,-0.90
2023-01-19T20:51:20.824Z,-0.90
2023-01-19T20:53:47.666Z,-0.90
2023-01-19T20:56:15.414Z,-0.90
2023-01-19T20:58:42.772Z,-0.90
2023-01-19T21:01:23.990Z,-0.90
2023-01-19T21:03:51.848Z,-0.90
2023-01-19T21:06:19.966Z,-0.90
2023-01-19T21:08:49.783Z,-0.90
2023-01-19T21:11:19.709Z,-0.90
2023-01-19T21:13:49.813Z,-0.90
2023-01-19T21:16:16.959Z,-0.90
2023-01-19T21:18:43.717Z,-0.90
2023-01-19T21:21:17.822Z,-1.00
2023-01-19T21:24:04.474Z,-1.00
2023-01-19T21:26:31.519Z,-1.10
2023-01-19T21:28:59.402Z,-1.20
2023-01-19T21:31:27.900Z,-1.30
2023-01-19T21:33:55.828Z,-1.40
2023-01-19T21:36:23.588Z,-1.60
2023-01-19T21:38:55.380Z,-1.70
2023-01-19T21:41:22.506Z,-1.70
2023-01-19T21:43:49.223Z,-1.80
2023-01-19T21:46:29.257Z,-1.90
2023-01-19T21:49:02.073Z,-1.90
2023-01-19T21:51:33.420Z,-2.00
2023-01-19T21:54:01.120Z,-2.00
2023-01-19T21:56:28.655Z,-2.00
2023-01-19T21:58:56.777Z,-2.00
2023-01-19T22:01:23.815Z,-2.10
2023-01-19T22:03:56.427Z,-2.20
2023-01-19T22:06:27.442Z,-2.20
2023-01-19T22:08:55.191Z,-2.30
2023-01-19T22:11:25.273Z,-2.30
2023-01-19T22:13:52.344Z,-2.50
2023-01-19T22:16:21.180Z,-2.50
2023-01-19T22:18:53.980Z,-2.50
2023-01-19T22:21:23.576Z,-2.60
2023-01-19T22:23:52.543Z,-2.70
2023-01-19T22:26:19.589Z,-2.70
2023-01-19T22:28:46.541Z,-2.60
2023-01-19T22:31:17.658Z,-2.60
2023-01-19T22:33:44.922Z,-2.60
2023-01-19T22:36:13.384Z,-2.70
2023-01-19T22:38:40.853Z,-2.70
2023-01-19T22:41:32.481Z,-2.80
2023-01-19T22:44:01.614Z,-2.80
2023-01-19T22:46:33.713Z,-2.90
2023-01-19T22:49:01.120Z,-2.90
2023-01-19T22:51:31.470Z,-2.80
2023-01-19T22:53:58.815Z,-2.70
2023-01-19T22:56:27.702Z,-2.80
2023-01-19T22:58:55.375Z,-2.90
2023-01-19T23:01:27.654Z,-2.90
2023-01-19T23:03:55.211Z,-2.90
2023-01-19T23:06:33.010Z,-2.90
2023-01-19T23:09:01.419Z,-2.70
2023-01-19T23:11:37.009Z,-2.80
2023-01-19T23:14:06.833Z,-2.90
2023-01-19T23:16:34.463Z,-3.00
2023-01-19T23:19:01.157Z,-3.10
2023-01-19T23:21:29.653Z,-3.10
2023-01-19T23:24:00.507Z,-3.10
2023-01-19T23:26:28.745Z,-3.20
2023-01-19T23:29:00.328Z,-3.10
2023-01-19T23:31:35.289Z,-3.10
2023-01-19T23:34:04.734Z,-3.00
2023-01-19T23:36:33.193Z,-2.80
2023-01-19T23:39:02.759Z,-2.80
2023-01-19T23:41:32.453Z,-2.90
2023-01-19T23:43:59.128Z,-3.10
2023-01-19T23:46:29.050Z,-3.10
2023-01-19T23:48:56.126Z,-3.20
2023-01-19T23:51:29.107Z,-3.20
2023-01-19T23:53:57.459Z,-3.40
2023-01-19T23:56:26.377Z,-3.60
2023-01-19T23:58:59.129Z,-3.80
